Time;durP1;ratioP1;P1;durP2;ratioP2;P2;SDS_P1;SDS_P2;PMS_P1;PMS_P2;Temp;Humidity;BMP_temperature;BMP_pressure;BME280_temperature;BME280_humidity;BME280_pressure;Samples;Min_cycle;Max_cycle;Signal;HPM_P1;HPM_P2
2022/11/10 00:00:45;;;;;;;16.58;14.38;;;;;;;19.33;58.38;101475.16;5022420;28;20054;-92
2022/11/10 00:03:31;;;;;;;17.02;14.40;;;;;;;19.35;58.29;101485.78;5022817;28;20058;-91
2022/11/10 00:06:17;;;;;;;20.15;15.20;;;;;;;19.35;58.27;101485.78;5022468;28;20050;-92
2022/11/10 00:09:03;;;;;;;18.77;15.82;;;;;;;19.34;58.33;101481.41;5021582;28;20057;-90
2022/11/10 00:11:49;;;;;;;18.90;15.30;;;;;;;19.33;58.28;101477.00;5029051;28;20046;-89
2022/11/10 00:17:39;;;;;;;18.98;15.40;;;;;;;19.32;58.38;101473.44;5027063;28;20054;-90
2022/11/10 00:20:25;;;;;;;16.90;14.82;;;;;;;19.32;58.29;101488.69;5018890;28;20049;-91
2022/11/10 00:23:11;;;;;;;17.45;15.38;;;;;;;19.32;58.12;101480.63;5025249;28;20053;-90
2022/11/10 00:25:57;;;;;;;20.15;14.77;;;;;;;19.32;58.15;101478.81;5019949;28;20050;-89
2022/11/10 00:28:44;;;;;;;20.50;15.07;;;;;;;19.32;58.03;101477.94;5025609;28;20413;-91
2022/11/10 00:31:30;;;;;;;20.67;15.50;;;;;;;19.31;58.36;101471.72;5018800;28;20050;-92
2022/11/10 00:34:16;;;;;;;18.35;15.27;;;;;;;19.31;58.15;101482.47;5025245;28;20054;-90
2022/11/10 00:37:02;;;;;;;17.25;13.80;;;;;;;19.31;58.46;101478.94;5019612;28;20050;-90
2022/11/10 00:39:48;;;;;;;17.70;13.82;;;;;;;19.31;58.08;101486.97;5020534;28;20062;-91
2022/11/10 00:42:34;;;;;;;18.63;13.88;;;;;;;19.31;57.91;101484.31;5018619;28;20045;-91
2022/11/10 00:45:20;;;;;;;15.55;13.88;;;;;;;19.31;58.07;101489.66;5018717;28;20058;-90
2022/11/10 00:48:06;;;;;;;17.95;13.25;;;;;;;19.30;58.20;101501.38;5018436;28;20058;-91
2022/11/10 00:50:52;;;;;;;18.05;14.75;;;;;;;19.30;58.26;101518.34;5024687;28;20050;-90
2022/11/10 00:53:38;;;;;;;15.82;13.95;;;;;;;19.30;58.11;101520.19;5019070;28;20062;-90
2022/11/10 00:56:24;;;;;;;15.65;14.07;;;;;;;19.29;58.04;101503.22;5025540;28;20061;-91
2022/11/10 00:59:11;;;;;;;16.30;13.15;;;;;;;19.28;58.28;101496.13;5026063;28;20477;-89
2022/11/10 01:01:56;;;;;;;17.40;14.32;;;;;;;19.29;58.20;101495.16;5018128;28;20045;-89
2022/11/10 01:04:42;;;;;;;17.75;14.45;;;;;;;19.29;58.16;101495.16;5024521;28;20481;-89
2022/11/10 01:07:28;;;;;;;14.77;13.18;;;;;;;19.29;58.33;101497.00;5024627;28;20058;-92
2022/11/10 01:10:15;;;;;;;14.18;12.60;;;;;;;19.27;58.21;101492.56;5019872;28;20061;-91
2022/11/10 01:13:01;;;;;;;17.50;12.35;;;;;;;19.27;58.13;101489.03;5019410;28;20050;-90
2022/11/10 01:15:47;;;;;;;15.05;13.40;;;;;;;19.28;58.35;101501.47;5019446;28;20046;-90
2022/11/10 01:18:34;;;;;;;13.77;12.30;;;;;;;19.29;58.20;101495.16;5017610;28;20054;-90
2022/11/10 01:21:21;;;;;;;15.88;12.52;;;;;;;19.27;58.10;101489.88;5017397;28;20054;-89
2022/11/10 01:24:07;;;;;;;13.82;11.95;;;;;;;19.26;58.40;101482.81;5017208;28;20045;-88
2022/11/10 01:26:53;;;;;;;13.70;11.98;;;;;;;19.27;58.50;101492.56;5021656;28;20054;-88
2022/11/10 01:29:39;;;;;;;15.32;11.57;;;;;;;19.27;58.15;101500.63;5024471;28;20050;-89
2022/11/10 01:32:25;;;;;;;15.52;12.38;;;;;;;19.27;58.10;101489.03;5017828;28;20050;-89
2022/11/10 01:35:11;;;;;;;13.90;12.02;;;;;;;19.27;58.30;101479.16;5024016;28;20049;-90
2022/11/10 01:37:57;;;;;;;13.13;11.73;;;;;;;19.27;58.28;101464.88;5024616;28;20050;-89
2022/11/10 01:40:44;;;;;;;13.60;11.85;;;;;;;19.26;58.36;101469.41;5024186;28;20057;-88
2022/11/10 01:43:30;;;;;;;12.20;10.98;;;;;;;19.27;58.33;101478.31;5024611;28;20470;-87
2022/11/10 01:46:16;;;;;;;14.40;11.30;;;;;;;19.27;58.30;101484.53;5024730;28;20053;-90
2022/11/10 01:49:03;;;;;;;13.75;10.85;;;;;;;19.26;58.25;101481.97;5023477;28;20050;-90
2022/11/10 01:52:00;;;;;;;12.18;10.80;;;;;;;19.27;58.33;101494.41;5023447;28;20050;-89
2022/11/10 01:54:48;;;;;;;14.98;11.20;;;;;;;19.27;58.43;101497.09;5024200;28;20058;-90
2022/11/10 01:57:35;;;;;;;13.98;11.05;;;;;;;19.27;58.22;101506.00;5023567;28;20490;-90
2022/11/10 02:00:21;;;;;;;11.90;10.60;;;;;;;19.26;58.48;101506.13;5023700;28;20050;-90
2022/11/10 02:03:16;;;;;;;13.05;10.35;;;;;;;19.26;58.24;101517.72;5024354;28;20046;-89
2022/11/10 02:06:03;;;;;;;12.88;10.18;;;;;;;19.26;58.37;101508.81;5024183;28;20402;-89
2022/11/10 02:08:51;;;;;;;13.07;11.73;;;;;;;19.26;58.51;101503.44;5024173;28;20045;-90
2022/11/10 02:11:38;;;;;;;12.48;11.13;;;;;;;19.26;58.43;101498.06;5024202;28;20045;-89
2022/11/10 02:14:25;;;;;;;11.90;9.77;;;;;;;19.25;58.36;101493.69;5023950;28;20042;-91
2022/11/10 02:17:11;;;;;;;10.63;9.50;;;;;;;19.26;58.35;101487.34;5024364;28;20060;-91
2022/11/10 02:19:59;;;;;;;12.15;9.73;;;;;;;19.26;58.45;101481.97;5023887;28;20052;-91
2022/11/10 02:22:45;;;;;;;12.05;9.70;;;;;;;19.25;58.56;101473.06;5023987;28;20516;-90
2022/11/10 02:25:31;;;;;;;12.20;9.52;;;;;;;19.25;58.53;101474.91;5024417;28;20057;-90
2022/11/10 02:28:17;;;;;;;10.07;9.07;;;;;;;19.25;58.48;101469.53;5017181;28;20061;-91
2022/11/10 02:31:04;;;;;;;11.88;9.25;;;;;;;19.26;58.63;101472.09;5023883;28;20061;-91
2022/11/10 02:33:50;;;;;;;10.82;9.25;;;;;;;19.25;58.67;101461.47;5016984;28;20406;-91
2022/11/10 02:36:36;;;;;;;11.43;9.07;;;;;;;19.25;58.54;101454.28;5016512;28;20061;-92
2022/11/10 02:39:22;;;;;;;10.80;9.52;;;;;;;19.25;58.66;101445.38;5022203;28;20065;-92
2022/11/10 02:42:09;;;;;;;11.60;8.68;;;;;;;19.25;58.47;101445.38;5016792;28;20061;-92
2022/11/10 02:44:55;;;;;;;9.88;8.25;;;;;;;19.24;58.61;101446.31;5023646;28;20065;-92
2022/11/10 02:47:41;;;;;;;10.63;9.07;;;;;;;19.24;58.63;101444.50;5016127;28;20080;-92
2022/11/10 02:50:28;;;;;;;10.60;9.30;;;;;;;19.23;58.43;101445.47;5023181;28;20061;-92
2022/11/10 02:53:14;;;;;;;12.25;9.63;;;;;;;19.24;58.45;101439.16;5023035;28;20053;-92
2022/11/10 02:56:00;;;;;;;9.60;8.63;;;;;;;19.24;58.67;101454.38;5016565;28;20418;-92
2022/11/10 02:58:46;;;;;;;14.80;9.52;;;;;;;19.24;58.62;101454.38;5017920;28;20520;-92
2022/11/10 03:01:32;;;;;;;12.45;8.25;;;;;;;19.24;58.69;101439.16;5016567;28;20053;-92
2022/11/10 03:04:18;;;;;;;10.48;8.80;;;;;;;19.24;58.65;101454.38;5024087;28;20084;-87
2022/11/10 03:07:04;;;;;;;11.50;7.95;;;;;;;19.23;58.68;101472.31;5023901;28;20527;-91
2022/11/10 03:09:50;;;;;;;9.57;8.57;;;;;;;19.24;58.45;101481.22;5023602;28;20057;-90
2022/11/10 03:12:36;;;;;;;10.55;8.52;;;;;;;19.24;58.54;101486.56;5014407;28;20060;-88
2022/11/10 03:15:23;;;;;;;9.68;8.65;;;;;;;19.24;58.64;101482.09;5021801;28;20061;-90
2022/11/10 03:18:08;;;;;;;11.55;8.60;;;;;;;19.24;58.64;101486.56;5021749;28;20061;-89
2022/11/10 03:20:54;;;;;;;13.88;9.10;;;;;;;19.23;58.48;101496.47;5023214;28;20061;-87
2022/11/10 03:23:40;;;;;;;10.40;8.63;;;;;;;19.24;58.81;101503.56;5022667;28;20061;-86
2022/11/10 03:26:26;;;;;;;8.98;7.68;;;;;;;19.24;58.75;101503.56;5020746;28;20061;-87
2022/11/10 03:29:12;;;;;;;8.88;7.55;;;;;;;19.24;58.68;101508.06;5022098;28;20065;-86
2022/11/10 03:31:58;;;;;;;9.75;7.43;;;;;;;19.22;58.82;101502.81;5021698;28;20056;-86
2022/11/10 03:34:44;;;;;;;11.60;8.23;;;;;;;19.22;58.87;101494.75;5022112;28;20504;-87
2022/11/10 03:37:30;;;;;;;9.07;8.13;;;;;;;19.22;58.84;101510.88;5015169;28;20509;-86
2022/11/10 03:40:16;;;;;;;9.27;7.47;;;;;;;19.23;58.55;101523.31;5021934;28;20069;-92
2022/11/10 03:43:02;;;;;;;9.73;8.07;;;;;;;19.23;58.81;101530.50;5016031;28;20061;-91
2022/11/10 03:45:48;;;;;;;9.02;7.63;;;;;;;19.22;58.72;101532.34;5016426;28;20081;-90
2022/11/10 03:48:34;;;;;;;12.15;8.85;;;;;;;19.22;58.90;101529.66;5023251;28;20060;-91
2022/11/10 03:51:21;;;;;;;10.32;8.52;;;;;;;19.22;59.00;101537.72;5019515;28;20057;-91
2022/11/10 03:54:07;;;;;;;9.77;7.90;;;;;;;19.22;58.88;101539.53;5020932;28;20060;-90
2022/11/10 03:56:53;;;;;;;11.10;7.72;;;;;;;19.20;58.94;101545.03;5019304;28;20072;-91
2022/11/10 03:59:39;;;;;;;11.25;8.98;;;;;;;19.22;59.07;101551.13;5019973;28;20061;-90
2022/11/10 04:02:25;;;;;;;12.00;8.05;;;;;;;19.22;58.94;101556.50;5020322;28;20057;-91
2022/11/10 04:17:30;;;;;;;10.73;7.95;;;;;;;19.21;59.01;101560.16;5026521;28;20061;-89
2022/11/10 04:20:17;;;;;;;8.35;7.32;;;;;;;19.22;59.17;101569.06;5033726;28;20057;-91
2022/11/10 04:26:28;;;;;;;9.43;7.88;;;;;;;19.21;59.20;101570.91;5031049;28;20121;-92
2022/11/10 04:29:17;;;;;;;10.18;8.52;;;;;;;19.22;59.03;101575.28;5019850;28;20056;-92
2022/11/10 04:32:03;;;;;;;10.93;8.13;;;;;;;19.21;59.09;101584.31;5026473;28;20053;-92
2022/11/10 04:34:49;;;;;;;12.18;7.63;;;;;;;19.22;59.12;101590.53;5026333;28;20061;-93
2022/11/10 04:37:35;;;;;;;10.35;8.32;;;;;;;19.21;59.07;101600.44;5026801;28;20061;-92
2022/11/10 04:40:22;;;;;;;8.80;7.32;;;;;;;19.21;59.01;101605.78;5019950;28;20064;-93
2022/11/10 04:43:08;;;;;;;8.88;7.47;;;;;;;19.20;58.97;101606.78;5019155;28;20057;-91
2022/11/10 04:45:54;;;;;;;9.40;8.18;;;;;;;19.22;59.10;101604.81;5019561;28;20052;-91
2022/11/10 04:48:40;;;;;;;9.93;8.13;;;;;;;19.20;59.29;101611.25;5018426;28;20057;-90
2022/11/10 04:51:37;;;;;;;8.90;7.97;;;;;;;19.20;59.18;101605.88;5018512;28;20061;-90
2022/11/10 04:54:23;;;;;;;8.70;7.50;;;;;;;19.20;59.16;101617.50;5025665;28;20405;-91
2022/11/10 04:57:09;;;;;;;12.32;8.93;;;;;;;19.21;59.37;101621.03;5019907;28;20061;-91
2022/11/10 04:59:55;;;;;;;10.18;9.10;;;;;;;19.20;59.20;101628.25;5025624;28;20064;-91
2022/11/10 05:02:41;;;;;;;9.43;7.95;;;;;;;19.21;59.29;101631.78;5018583;28;20079;-91
2022/11/10 05:05:27;;;;;;;9.63;8.68;;;;;;;19.20;59.15;101622.88;5025789;28;20053;-90
2022/11/10 05:08:13;;;;;;;11.10;8.95;;;;;;;19.19;59.29;101613.09;5031918;28;20053;-90
2022/11/10 05:10:59;;;;;;;12.68;9.55;;;;;;;19.19;59.22;101613.09;5018097;28;20068;-90
2022/11/10 05:13:45;;;;;;;10.68;8.63;;;;;;;19.19;59.20;101618.47;5018355;28;20401;-89
2022/11/10 05:16:32;;;;;;;10.88;7.85;;;;;;;19.20;59.28;101630.94;5025014;28;20056;-90
2022/11/10 05:19:17;;;;;;;9.85;7.93;;;;;;;19.19;59.44;101623.81;5017682;28;20405;-91
2022/11/10 05:22:05;;;;;;;10.20;8.43;;;;;;;19.20;59.33;101636.31;5024621;28;20056;-90
2022/11/10 05:24:51;;;;;;;9.00;7.93;;;;;;;19.18;59.31;101643.59;5018689;28;20069;-90
2022/11/10 05:27:37;;;;;;;9.43;8.38;;;;;;;19.19;59.17;101650.66;5020336;28;20069;-90
2022/11/10 05:30:23;;;;;;;10.13;8.70;;;;;;;19.19;59.18;101650.66;5023756;28;20410;-89
2022/11/10 05:33:10;;;;;;;10.70;8.68;;;;;;;19.20;59.24;101652.41;5018321;28;20413;-92
2022/11/10 05:35:56;;;;;;;11.27;9.20;;;;;;;19.19;59.39;101647.97;5024120;28;20053;-88
2022/11/10 05:38:42;;;;;;;11.05;8.85;;;;;;;19.19;59.39;101647.13;5024392;28;20049;-93
2022/11/10 05:41:28;;;;;;;10.18;8.65;;;;;;;19.19;59.33;101653.34;5024511;28;20060;-91
2022/11/10 05:44:14;;;;;;;8.82;8.00;;;;;;;19.19;59.42;101645.28;5024565;28;20065;-91
2022/11/10 05:47:00;;;;;;;11.48;8.98;;;;;;;19.20;59.33;101651.53;5018020;28;20069;-82
2022/11/10 05:49:46;;;;;;;10.45;8.02;;;;;;;19.20;59.18;101651.53;5025543;28;20084;-89
2022/11/10 05:52:32;;;;;;;10.23;8.32;;;;;;;19.19;59.30;101664.09;5017337;28;20501;-89
2022/11/10 05:55:23;;;;;;;10.40;8.85;;;;;;;19.19;59.37;101666.78;5018609;28;20060;-90
2022/11/10 05:58:09;;;;;;;9.77;7.95;;;;;;;19.19;59.61;101674.81;5024035;28;20057;-89
2022/11/10 06:00:56;;;;;;;11.02;8.07;;;;;;;19.19;59.53;101669.47;5023574;28;20061;-90
2022/11/10 06:03:42;;;;;;;10.15;8.77;;;;;;;19.19;59.51;101677.50;5022525;28;20410;-89
2022/11/10 06:06:28;;;;;;;9.75;8.57;;;;;;;19.20;59.28;101683.72;5024241;28;20065;-89
2022/11/10 06:09:14;;;;;;;10.43;8.57;;;;;;;19.18;59.61;101683.84;5024649;28;20068;-89
2022/11/10 06:12:02;;;;;;;9.32;8.18;;;;;;;19.20;59.41;101691.78;5022947;28;20492;-88
2022/11/10 06:14:48;;;;;;;11.65;8.45;;;;;;;19.19;59.57;101701.66;5016721;28;20060;-88
2022/11/10 06:17:37;;;;;;;10.50;8.73;;;;;;;19.18;59.51;101694.59;5024041;28;20056;-90
2022/11/10 06:20:23;;;;;;;9.27;8.38;;;;;;;19.19;59.35;101709.72;5023102;28;20064;-89
2022/11/10 06:23:10;;;;;;;9.10;8.18;;;;;;;19.18;59.54;101715.22;5023600;28;20056;-90
2022/11/10 06:25:56;;;;;;;11.93;9.18;;;;;;;19.18;59.53;101724.13;5023957;28;20061;-90
2022/11/10 06:28:42;;;;;;;10.05;9.05;;;;;;;19.17;59.45;101727.78;5024149;28;20061;-89
2022/11/10 06:31:28;;;;;;;9.85;8.85;;;;;;;19.18;59.49;101734.84;5022708;28;20081;-89
2022/11/10 06:34:14;;;;;;;9.63;8.32;;;;;;;19.18;59.62;101742.06;5023185;28;20052;-88
2022/11/10 06:37:00;;;;;;;10.50;8.40;;;;;;;19.17;59.47;101743.88;5022190;28;20081;-87
2022/11/10 06:39:46;;;;;;;9.70;8.70;;;;;;;19.18;59.53;101750.09;5023363;28;20057;-88
2022/11/10 06:42:32;;;;;;;9.93;8.73;;;;;;;19.17;59.55;101754.63;5023194;28;20056;-86
2022/11/10 06:45:19;;;;;;;10.15;9.02;;;;;;;19.19;59.61;101775.97;5023155;28;20130;-87
2022/11/10 06:48:13;;;;;;;10.38;8.65;;;;;;;19.18;59.61;101779.63;5022770;28;20057;-87
2022/11/10 06:50:59;;;;;;;9.70;8.57;;;;;;;19.18;59.49;101783.19;5022005;28;20072;-85
2022/11/10 06:53:46;;;;;;;9.38;8.05;;;;;;;19.16;59.50;101782.44;5022234;28;20058;-87
2022/11/10 06:56:32;;;;;;;10.32;7.78;;;;;;;19.18;59.61;101785.00;5015027;28;20061;-88
2022/11/10 06:59:18;;;;;;;9.75;8.27;;;;;;;19.18;59.55;101793.06;5022416;28;20060;-87
2022/11/10 07:02:03;;;;;;;11.05;9.38;;;;;;;19.17;59.46;101794.88;5022746;28;20076;-87
2022/11/10 07:04:49;;;;;;;11.18;9.35;;;;;;;19.17;59.62;101797.56;5022483;28;20053;-87
2022/11/10 07:07:35;;;;;;;9.98;8.98;;;;;;;19.16;59.75;101811.97;5022711;28;20073;-87
2022/11/10 07:10:21;;;;;;;10.32;9.32;;;;;;;19.17;59.59;101819.03;5022048;28;20060;-87
2022/11/10 07:13:09;;;;;;;10.40;8.75;;;;;;;19.17;59.57;101819.03;5018107;28;20061;-87
2022/11/10 07:15:54;;;;;;;9.77;8.40;;;;;;;19.16;59.63;101811.97;5021886;28;20061;-87
2022/11/10 07:18:40;;;;;;;11.02;9.07;;;;;;;19.16;59.77;101821.81;5022525;28;20125;-87
2022/11/10 07:21:26;;;;;;;10.90;9.13;;;;;;;19.16;59.72;101833.44;5021471;28;20057;-87
2022/11/10 07:24:12;;;;;;;9.48;8.57;;;;;;;19.16;59.57;101838.81;5021543;28;20050;-87
2022/11/10 07:26:58;;;;;;;10.52;8.77;;;;;;;19.16;59.60;101841.50;5019256;28;20064;-87
2022/11/10 07:29:44;;;;;;;12.18;9.00;;;;;;;19.16;59.64;101848.66;5021914;28;20406;-88
2022/11/10 07:32:30;;;;;;;11.25;9.65;;;;;;;19.17;59.50;101859.31;5022222;28;20065;-87
2022/11/10 07:35:16;;;;;;;11.55;9.27;;;;;;;19.16;59.69;101865.66;5016285;28;20061;-86
2022/11/10 07:38:08;;;;;;;11.82;9.52;;;;;;;19.15;59.62;101861.22;5022452;28;20061;-86
2022/11/10 07:40:54;;;;;;;10.07;8.98;;;;;;;19.16;59.89;101864.75;5014250;28;20056;-90
2022/11/10 07:43:40;;;;;;;12.43;9.77;;;;;;;19.15;59.72;101863.91;5021449;28;20396;-87
2022/11/10 07:46:26;;;;;;;11.55;8.52;;;;;;;19.16;59.56;101867.44;5020567;28;20056;-82
2022/11/10 07:49:12;;;;;;;9.88;8.88;;;;;;;19.15;59.79;101866.59;5020821;28;20065;-82
2022/11/10 07:51:58;;;;;;;12.05;9.75;;;;;;;19.15;59.53;101871.97;5020821;28;20068;-82
2022/11/10 07:54:44;;;;;;;9.63;8.60;;;;;;;19.16;59.78;101880.88;5021029;28;20057;-83
2022/11/10 07:57:29;;;;;;;22.88;20.33;;;;;;;19.15;59.43;101882.69;5022325;28;20061;-88
2022/11/10 08:00:16;;;;;;;35.97;32.05;;;;;;;19.00;59.48;101899.88;5022294;28;20058;-90
2022/11/10 08:03:04;;;;;;;37.53;31.10;;;;;;;18.89;59.61;101895.22;5014850;28;20058;-88
2022/11/10 08:05:50;;;;;;;35.97;30.33;;;;;;;18.78;60.08;101893.25;5021671;28;20058;-89
2022/11/10 08:08:36;;;;;;;35.40;31.52;;;;;;;18.69;60.41;101899.19;5022002;28;20046;-91
2022/11/10 08:11:22;;;;;;;36.75;32.65;;;;;;;18.62;60.64;101897.00;5021551;28;20050;-93
2022/11/10 08:14:08;;;;;;;33.20;29.65;;;;;;;18.56;60.91;101895.59;5016031;28;20050;-93
2022/11/10 08:16:54;;;;;;;38.90;32.53;;;;;;;18.54;61.50;101898.38;5021531;28;20402;-91
2022/11/10 08:19:40;;;;;;;37.65;30.20;;;;;;;18.52;61.17;101905.66;5015111;28;20057;-94
2022/11/10 08:22:26;;;;;;;37.75;32.47;;;;;;;18.49;61.27;101892.47;5022483;28;20054;-90
2022/11/10 08:25:12;;;;;;;35.20;31.15;;;;;;;18.45;61.32;101896.31;5021695;28;20046;-91
2022/11/10 08:28:00;;;;;;;38.42;34.33;;;;;;;18.40;61.37;101900.25;5014927;28;20049;-85
2022/11/10 08:30:47;;;;;;;37.25;33.20;;;;;;;18.39;61.88;101898.50;5021890;28;20054;-90
2022/11/10 08:33:33;;;;;;;38.13;32.97;;;;;;;18.41;61.81;101899.28;5019772;28;20058;-86
2022/11/10 08:36:19;;;;;;;29.38;24.83;;;;;;;18.48;61.50;101898.78;5023080;28;20057;-94
2022/11/10 08:39:05;;;;;;;25.73;22.27;;;;;;;18.57;61.33;101894.63;5024923;28;20050;-86
2022/11/10 08:41:51;;;;;;;25.73;21.55;;;;;;;18.64;61.75;101893.28;5024434;28;20054;-90
2022/11/10 08:44:37;;;;;;;25.35;19.70;;;;;;;18.70;61.12;101895.56;5018426;28;20394;-89
2022/11/10 08:47:23;;;;;;;21.80;19.15;;;;;;;18.76;61.85;101899.69;5025755;28;20049;-94
2022/11/10 08:50:09;;;;;;;23.02;19.30;;;;;;;18.81;62.25;101910.09;5024240;28;20058;-95
2022/11/10 08:52:55;;;;;;;22.25;17.75;;;;;;;18.83;62.32;101906.34;5018620;28;20045;-87
2022/11/10 08:55:42;;;;;;;19.38;17.35;;;;;;;18.86;62.35;101903.47;5025961;28;20049;-94
2022/11/10 08:58:29;;;;;;;23.50;18.05;;;;;;;18.89;62.65;101905.09;5017465;28;20066;-88
2022/11/10 09:01:14;;;;;;;19.85;16.33;;;;;;;18.93;62.08;101912.81;5022950;28;20049;-87
2022/11/10 09:04:00;;;;;;;19.30;16.95;;;;;;;18.95;61.82;101913.56;5023741;28;20053;-86
2022/11/10 09:06:46;;;;;;;19.60;17.50;;;;;;;18.97;61.68;101918.84;5024451;28;20054;-89
2022/11/10 09:09:32;;;;;;;27.20;18.55;;;;;;;18.99;61.68;101925.81;5023627;28;20054;-84
2022/11/10 09:12:18;;;;;;;20.70;18.02;;;;;;;19.00;61.96;101930.25;5021488;28;20046;-85
2022/11/10 09:15:05;;;;;;;23.65;18.25;;;;;;;19.01;61.74;101931.09;5023563;28;20481;-86
2022/11/10 09:17:51;;;;;;;19.33;15.70;;;;;;;19.05;61.79;101937.97;5023025;28;20054;-85
2022/11/10 09:20:37;;;;;;;29.60;20.35;;;;;;;19.05;60.94;101943.34;5024066;28;20401;-86
2022/11/10 09:23:23;;;;;;;28.65;22.75;;;;;;;19.07;60.57;101948.59;5024369;28;20049;-90
2022/11/10 09:26:10;;;;;;;26.75;22.48;;;;;;;19.08;60.50;101956.56;5024719;28;20050;-94
2022/11/10 09:28:56;;;;;;;31.08;23.95;;;;;;;19.08;60.06;101953.00;5018906;28;20050;-94
2022/11/10 09:31:44;;;;;;;36.22;27.33;;;;;;;19.08;60.22;101966.41;5025194;28;20053;-91
2022/11/10 09:34:29;;;;;;;32.53;27.52;;;;;;;19.09;59.95;101970.84;5018476;28;20410;-88
2022/11/10 09:37:15;;;;;;;29.92;25.98;;;;;;;19.08;59.77;101975.34;5024203;28;20054;-88
2022/11/10 09:40:01;;;;;;;30.00;26.42;;;;;;;19.10;59.74;101977.94;5025197;28;20381;-91
2022/11/10 09:42:52;;;;;;;32.50;27.23;;;;;;;19.09;59.74;101979.75;5017484;28;20054;-88
2022/11/10 09:45:46;;;;;;;34.80;28.85;;;;;;;19.09;59.52;101974.38;5024949;28;20045;-85
2022/11/10 09:48:36;;;;;;;31.40;27.52;;;;;;;19.10;59.40;101983.28;5018068;28;20049;-90
2022/11/10 09:51:29;;;;;;;32.88;28.65;;;;;;;19.11;59.39;101987.69;5024923;28;20045;-90
2022/11/10 09:54:36;;;;;;;31.45;26.90;;;;;;;19.11;59.54;101993.06;5023571;28;20046;-91
2022/11/10 09:57:24;;;;;;;33.47;27.73;;;;;;;19.11;59.45;101999.28;5024533;28;20050;-91
2022/11/10 10:00:16;;;;;;;26.00;21.17;;;;;;;19.11;59.88;102001.13;5024135;28;20050;-92
2022/11/10 10:03:04;;;;;;;24.08;20.33;;;;;;;19.13;60.44;102009.94;5022362;28;20057;-83
2022/11/10 10:05:55;;;;;;;31.17;22.48;;;;;;;19.14;60.17;102020.56;5024433;28;20057;-88
2022/11/10 10:08:53;;;;;;;25.80;20.02;;;;;;;19.14;60.46;102011.66;5023422;28;20054;-87
2022/11/10 10:11:42;;;;;;;25.90;20.55;;;;;;;19.14;60.43;102009.81;5022593;28;20053;-88
2022/11/10 10:14:41;;;;;;;22.85;20.45;;;;;;;19.17;60.37;102024.88;5022536;28;20046;-88
2022/11/10 10:17:38;;;;;;;24.38;19.80;;;;;;;19.17;60.31;102028.44;5023174;28;20050;-90
2022/11/10 10:20:54;;;;;;;21.38;17.80;;;;;;;19.18;60.52;102035.50;5022558;28;20049;-91
2022/11/10 10:24:13;;;;;;;20.63;18.25;;;;;;;19.18;60.50;102040.88;5015900;28;20421;-86
2022/11/10 10:27:14;;;;;;;24.15;18.88;;;;;;;19.19;60.41;102044.41;5000887;28;20050;-85
2022/11/10 10:30:05;;;;;;;21.98;17.77;;;;;;;19.19;60.71;102041.72;5019564;28;20062;-83
2022/11/10 10:32:59;;;;;;;22.70;18.45;;;;;;;19.20;60.32;102048.81;5007446;28;20463;-87
2022/11/10 10:35:47;;;;;;;18.85;15.68;;;;;;;19.20;60.53;102043.44;5022096;28;20457;-91
2022/11/10 10:38:38;;;;;;;22.35;17.00;;;;;;;19.21;60.30;102051.41;5007611;28;20545;-86
2022/11/10 10:41:30;;;;;;;21.63;17.50;;;;;;;19.22;60.35;102053.13;5021312;28;20046;-88
2022/11/10 10:44:18;;;;;;;17.60;15.70;;;;;;;19.23;60.47;102054.00;5002444;28;20050;-91
2022/11/10 10:47:04;;;;;;;20.77;17.20;;;;;;;19.23;60.44;102054.00;5007733;28;20490;-86
2022/11/10 10:49:50;;;;;;;22.67;17.63;;;;;;;19.23;60.52;102051.31;5018246;28;20069;-90
2022/11/10 10:52:35;;;;;;;17.48;14.15;;;;;;;19.23;60.38;102056.69;5021175;28;20405;-95
2022/11/10 10:55:28;;;;;;;22.80;18.92;;;;;;;19.24;60.45;102055.69;5000251;28;20054;-87
2022/11/10 10:58:26;;;;;;;19.35;16.67;;;;;;;19.23;60.48;102056.69;5019605;28;20486;-88
2022/11/10 11:01:15;;;;;;;18.75;16.10;;;;;;;19.24;60.46;102053.03;5019633;28;20053;-88
2022/11/10 11:04:23;;;;;;;21.60;16.60;;;;;;;19.24;60.37;102064.66;5012904;28;20069;-89
2022/11/10 11:07:23;;;;;;;18.33;15.63;;;;;;;19.25;60.24;102066.38;5023019;28;20223;-93
2022/11/10 11:10:18;;;;;;;18.55;15.43;;;;;;;19.25;60.36;102065.50;5024417;28;20054;-84
2022/11/10 11:13:23;;;;;;;19.35;16.67;;;;;;;19.25;60.25;102063.69;5015596;28;20057;-83
2022/11/10 11:16:11;;;;;;;17.85;14.75;;;;;;;19.25;60.22;102077.09;5023129;28;20042;-89
2022/11/10 11:18:57;;;;;;;17.48;15.63;;;;;;;19.27;60.46;102077.84;5021641;28;20054;-85
2022/11/10 11:22:02;;;;;;;21.77;15.43;;;;;;;19.26;60.17;102068.06;5022860;28;20049;-90
2022/11/10 11:24:59;;;;;;;21.42;16.08;;;;;;;19.27;60.14;102077.84;5024202;28;20049;-84
2022/11/10 11:27:59;;;;;;;17.50;15.05;;;;;;;19.27;60.07;102072.47;5017147;28;20053;-95
2022/11/10 11:31:09;;;;;;;20.30;16.48;;;;;;;19.27;60.21;102082.34;5022122;28;20041;-83
2022/11/10 11:34:04;;;;;;;17.15;14.10;;;;;;;19.29;60.16;102075.06;5024027;28;20050;-84
2022/11/10 11:36:50;;;;;;;15.90;12.98;;;;;;;19.29;59.98;102074.22;5028490;28;20044;-83
2022/11/10 11:40:13;;;;;;;18.33;15.68;;;;;;;19.30;60.06;102084.00;5062361;28;20424;-84
2022/11/10 11:43:26;;;;;;;16.63;14.00;;;;;;;19.29;60.05;102088.50;5062812;28;20049;-92
2022/11/10 11:46:18;;;;;;;17.33;14.43;;;;;;;19.30;60.04;102082.16;5061273;28;20481;-82
2022/11/10 11:49:48;;;;;;;18.02;13.48;;;;;;;19.29;59.97;102085.81;5056128;28;20057;-91
2022/11/10 11:52:47;;;;;;;13.55;11.98;;;;;;;19.32;60.03;102092.78;5036821;28;20493;-89
2022/11/10 11:55:42;;;;;;;16.88;12.95;;;;;;;19.32;60.17;102090.97;5061313;28;20037;-93
2022/11/10 11:58:28;;;;;;;14.13;12.65;;;;;;;19.32;60.21;102095.47;5063656;28;20492;-94
2022/11/10 12:01:33;;;;;;;14.88;12.55;;;;;;;19.31;60.33;102097.31;5059374;28;20049;-90
2022/11/10 12:05:09;;;;;;;18.02;12.18;;;;;;;19.31;60.23;102097.31;5041078;28;20493;-92
2022/11/10 12:08:21;;;;;;;15.88;11.95;;;;;;;19.31;60.16;102107.19;5035153;28;20057;-87
2022/11/10 12:11:13;;;;;;;15.68;11.57;;;;;;;19.33;60.08;102102.59;5038765;28;20065;-86
2022/11/10 12:14:11;;;;;;;13.95;11.38;;;;;;;19.31;60.18;102105.34;5037972;28;20053;-87
2022/11/10 12:17:11;;;;;;;12.18;10.88;;;;;;;19.32;60.27;102103.53;5043132;28;20050;-85
2022/11/10 12:20:19;;;;;;;14.50;11.20;;;;;;;19.33;60.20;102113.34;5042751;28;20050;-85
2022/11/10 12:23:42;;;;;;;12.10;10.57;;;;;;;19.33;60.17;102118.69;5042429;28;20500;-87
2022/11/10 12:26:37;;;;;;;12.77;10.55;;;;;;;19.32;60.15;102115.13;5037300;28;20065;-92
2022/11/10 12:29:23;;;;;;;13.30;9.85;;;;;;;19.33;60.29;102119.56;5043246;28;20049;-87
2022/11/10 12:32:16;;;;;;;12.00;10.20;;;;;;;19.34;60.18;102117.72;5037061;28;20088;-85
2022/11/10 12:35:21;;;;;;;12.35;10.00;;;;;;;19.35;60.25;102124.81;5042496;28;20489;-85
2022/11/10 12:38:15;;;;;;;11.05;9.80;;;;;;;19.36;60.26;102126.53;5024356;28;20080;-86
2022/11/10 12:41:08;;;;;;;11.68;10.05;;;;;;;19.36;60.33;102129.22;5029233;28;20069;-87
2022/11/10 12:44:01;;;;;;;11.77;9.37;;;;;;;19.35;60.28;102124.81;5036586;28;20061;-87
2022/11/10 12:46:52;;;;;;;11.80;9.10;;;;;;;19.36;60.26;102127.38;5044573;28;20064;-86
2022/11/10 12:49:47;;;;;;;10.30;9.20;;;;;;;19.34;60.96;102123.97;5044453;28;20052;-86
2022/11/10 12:52:44;;;;;;;10.85;8.93;;;;;;;19.36;66.01;102129.22;5044301;28;20057;-86
2022/11/10 12:55:41;;;;;;;10.25;8.98;;;;;;;19.33;66.92;102127.63;5046094;28;20040;-85
2022/11/10 12:58:27;;;;;;;11.02;9.45;;;;;;;19.31;66.91;102129.53;5064379;28;20076;-89
2022/11/10 13:01:17;;;;;;;10.35;9.27;;;;;;;19.29;67.12;102136.84;5064604;28;20060;-86
2022/11/10 13:04:04;;;;;;;12.20;8.77;;;;;;;19.27;67.82;102139.59;5065069;28;20055;-89
2022/11/10 13:06:55;;;;;;;10.48;8.40;;;;;;;19.26;68.16;102135.19;5065565;28;20052;-87
2022/11/10 13:09:43;;;;;;;9.43;8.35;;;;;;;19.24;68.54;102129.09;5064351;28;20063;-89
2022/11/10 13:12:29;;;;;;;10.32;8.82;;;;;;;19.24;68.85;102130.88;5062153;28;20048;-90